createdAt,value
2022-08-17T00:01:26.228Z,8.00
2022-08-17T00:06:31.389Z,7.27
2022-08-17T00:11:39.854Z,7.10
2022-08-17T00:16:56.375Z,7.80
2022-08-17T00:22:31.235Z,7.50
2022-08-17T00:28:00.424Z,7.13
2022-08-17T00:33:14.952Z,7.90
2022-08-17T00:38:20.205Z,7.07
2022-08-17T00:43:34.182Z,7.10
2022-08-17T00:48:38.530Z,7.50
2022-08-17T00:53:44.777Z,7.60
2022-08-17T00:58:50.368Z,7.63
2022-08-17T01:03:58.025Z,8.20
2022-08-17T01:09:04.760Z,8.47
2022-08-17T01:14:09.843Z,8.43
2022-08-17T01:19:18.210Z,8.43
2022-08-17T01:24:30.580Z,8.30
2022-08-17T01:29:40.434Z,7.90
2022-08-17T01:34:50.556Z,8.70
2022-08-17T01:40:03.981Z,8.70
2022-08-17T01:45:11.963Z,8.40
2022-08-17T01:50:18.197Z,8.50
2022-08-17T01:55:29.638Z,9.27
2022-08-17T02:00:59.870Z,10.20
2022-08-17T02:05:58.967Z,9.30
2022-08-17T02:11:05.382Z,8.33
2022-08-17T02:16:15.435Z,8.53
2022-08-17T02:21:21.205Z,9.67
2022-08-17T02:26:26.413Z,8.77
2022-08-17T02:31:30.112Z,9.23
2022-08-17T02:36:35.492Z,9.60
2022-08-17T02:41:40.865Z,9.30
2022-08-17T02:46:44.007Z,10.17
2022-08-17T02:51:47.180Z,10.93
2022-08-17T02:56:51.388Z,9.57
2022-08-17T03:01:54.344Z,9.77
2022-08-17T03:06:57.829Z,9.43
2022-08-17T03:12:07.352Z,9.27
2022-08-17T03:17:17.478Z,11.00
2022-08-17T03:22:36.864Z,10.10
2022-08-17T03:27:45.315Z,11.47
2022-08-17T03:32:56.204Z,10.60
2022-08-17T03:38:00.049Z,10.80
2022-08-17T03:43:10.677Z,10.63
2022-08-17T03:48:34.223Z,10.30
2022-08-17T03:54:06.148Z,11.73
2022-08-17T03:59:20.996Z,10.70
2022-08-17T04:04:27.644Z,10.80
2022-08-17T04:09:31.043Z,11.87
2022-08-17T04:14:51.811Z,11.03
2022-08-17T04:19:58.041Z,11.63
2022-08-17T04:25:09.493Z,12.53
2022-08-17T04:30:14.490Z,12.40
2022-08-17T04:35:20.173Z,12.47
2022-08-17T04:40:42.616Z,12.47
2022-08-17T04:45:54.965Z,11.53
2022-08-17T04:51:01.493Z,12.83
2022-08-17T04:56:04.757Z,13.03
2022-08-17T05:01:09.592Z,11.47
2022-08-17T05:06:12.587Z,12.50
2022-08-17T05:11:18.976Z,11.70
2022-08-17T05:16:24.475Z,10.27
2022-08-17T05:21:28.289Z,11.33
2022-08-17T05:26:31.000Z,10.37
2022-08-17T05:31:35.024Z,11.00
2022-08-17T05:36:43.150Z,10.37
2022-08-17T05:41:49.537Z,10.17
2022-08-17T05:46:54.387Z,9.90
2022-08-17T05:52:21.687Z,9.27
2022-08-17T05:57:36.960Z,8.53
2022-08-17T06:03:01.424Z,9.40
2022-08-17T06:08:13.379Z,7.60
2022-08-17T06:13:27.448Z,6.23
2022-08-17T06:18:39.719Z,6.40
2022-08-17T06:23:57.988Z,6.93
2022-08-17T06:29:28.534Z,5.80
2022-08-17T06:34:36.110Z,4.67
2022-08-17T06:39:49.595Z,4.57
2022-08-17T06:45:17.966Z,5.17
2022-08-17T06:50:30.823Z,5.60
2022-08-17T06:55:44.207Z,5.50
2022-08-17T07:00:49.556Z,4.70
2022-08-17T07:06:00.219Z,5.13
2022-08-17T07:11:06.539Z,4.87
2022-08-17T07:16:16.652Z,6.20
2022-08-17T07:21:37.104Z,5.57
2022-08-17T07:26:39.856Z,7.80
2022-08-17T07:31:42.508Z,7.90
2022-08-17T07:36:48.639Z,9.77
2022-08-17T07:41:57.442Z,10.77
2022-08-17T07:47:34.047Z,9.77
2022-08-17T07:52:50.573Z,10.40
2022-08-17T07:57:58.248Z,11.50
2022-08-17T08:03:12.462Z,12.30
2022-08-17T08:08:29.761Z,10.00
2022-08-17T08:13:33.249Z,11.67
2022-08-17T08:18:54.451Z,13.67
2022-08-17T08:24:26.337Z,13.10
2022-08-17T08:29:42.735Z,13.80
2022-08-17T08:35:02.681Z,13.07
2022-08-17T08:40:21.177Z,12.97
2022-08-17T08:45:30.599Z,12.40
2022-08-17T08:50:46.508Z,13.50
2022-08-17T08:55:55.812Z,11.30
2022-08-17T09:00:59.864Z,12.00
2022-08-17T09:06:37.833Z,15.57
2022-08-17T09:12:01.924Z,15.50
2022-08-17T09:17:13.801Z,14.80
2022-08-17T09:22:31.274Z,15.10
2022-08-17T09:27:47.541Z,13.23
2022-08-17T09:32:55.194Z,13.23
2022-08-17T09:38:04.326Z,15.73
2022-08-17T09:43:14.100Z,11.90
2022-08-17T09:48:22.413Z,14.40
2022-08-17T09:53:25.478Z,16.10
2022-08-17T09:58:42.284Z,16.20
2022-08-17T10:04:06.719Z,16.10
2022-08-17T10:09:20.459Z,18.30
2022-08-17T10:14:36.326Z,19.93
2022-08-17T10:19:48.069Z,22.17
2022-08-17T10:25:23.948Z,18.20
2022-08-17T10:30:34.101Z,28.40
2022-08-17T10:35:45.127Z,22.70
2022-08-17T10:40:55.081Z,24.20
2022-08-17T10:46:10.414Z,24.27
2022-08-17T10:51:38.812Z,29.87
2022-08-17T10:56:46.795Z,26.00
2022-08-17T11:02:13.829Z,28.73
2022-08-17T11:07:27.872Z,29.10
2022-08-17T11:12:42.385Z,33.10
2022-08-17T11:18:22.427Z,34.03
2022-08-17T11:23:50.927Z,33.47
2022-08-17T11:28:59.971Z,41.70
2022-08-17T11:34:10.108Z,42.57
2022-08-17T11:39:29.663Z,41.77
2022-08-17T11:44:47.725Z,45.47
2022-08-17T11:50:34.928Z,47.80
2022-08-17T11:56:03.494Z,46.10
2022-08-17T12:01:08.695Z,51.17
2022-08-17T12:06:41.136Z,48.00
2022-08-17T12:11:55.184Z,52.67
2022-08-17T12:17:22.438Z,50.70
2022-08-17T12:22:54.840Z,51.40
2022-08-17T12:28:05.946Z,50.53
2022-08-17T12:33:25.305Z,52.73
2022-08-17T12:38:36.001Z,51.20
2022-08-17T12:43:39.076Z,56.63
2022-08-17T12:48:59.157Z,55.80
2022-08-17T12:54:07.628Z,56.27
2022-08-17T12:59:12.188Z,55.90
2022-08-17T13:04:24.246Z,56.77
2022-08-17T13:09:40.164Z,51.90
2022-08-17T13:14:46.364Z,54.10
2022-08-17T13:19:50.971Z,49.53
2022-08-17T13:24:58.712Z,52.50
2022-08-17T13:30:08.430Z,52.57
2022-08-17T13:35:49.895Z,52.90
2022-08-17T13:41:09.450Z,53.67
2022-08-17T13:46:20.214Z,46.37
2022-08-17T13:51:29.511Z,55.87
2022-08-17T13:56:49.483Z,48.23
2022-08-17T14:01:54.122Z,49.23
2022-08-17T14:07:04.143Z,48.43
2022-08-17T14:12:12.670Z,50.97
2022-08-17T14:17:20.101Z,48.83
2022-08-17T14:22:32.464Z,43.83
2022-08-17T14:27:41.760Z,47.50
2022-08-17T14:32:56.524Z,44.17
2022-08-17T14:37:59.801Z,37.60
2022-08-17T14:43:03.946Z,33.23
2022-08-17T14:48:07.980Z,36.67
2022-08-17T14:53:15.274Z,40.00
2022-08-17T14:58:22.342Z,42.03
2022-08-17T15:03:25.210Z,37.27
2022-08-17T15:08:28.237Z,41.73
2022-08-17T15:13:33.019Z,43.43
2022-08-17T15:18:37.010Z,40.93
2022-08-17T15:23:40.292Z,38.20
2022-08-17T15:28:54.320Z,35.63
2022-08-17T15:33:59.396Z,41.07
2022-08-17T15:39:05.429Z,43.30
2022-08-17T15:44:09.799Z,40.67
2022-08-17T15:49:12.763Z,36.47
2022-08-17T15:54:23.431Z,44.60
2022-08-17T15:59:33.158Z,40.67
2022-08-17T16:04:36.039Z,43.87
2022-08-17T16:09:44.925Z,42.60
2022-08-17T16:14:51.631Z,41.57
2022-08-17T16:19:54.777Z,43.00
2022-08-17T16:24:59.907Z,39.50
2022-08-17T16:30:07.816Z,43.10
2022-08-17T16:35:16.091Z,42.57
2022-08-17T16:40:31.304Z,41.63
2022-08-17T16:46:03.059Z,42.17
2022-08-17T16:51:06.004Z,42.03
2022-08-17T16:56:08.806Z,43.50
2022-08-17T17:01:18.977Z,40.77
2022-08-17T17:06:35.074Z,37.57
2022-08-17T17:11:46.026Z,33.97
2022-08-17T17:17:00.935Z,24.70
2022-08-17T17:22:16.128Z,25.63
2022-08-17T17:27:32.447Z,27.57
2022-08-17T17:32:41.631Z,28.07
2022-08-17T17:37:46.489Z,34.20
2022-08-17T17:42:55.195Z,35.30
2022-08-17T17:47:59.623Z,34.70
2022-08-17T17:53:07.486Z,28.73
2022-08-17T17:58:22.519Z,20.73
2022-08-17T18:03:46.128Z,21.80
2022-08-17T18:09:11.292Z,22.13
2022-08-17T18:14:43.647Z,25.07
2022-08-17T18:19:49.880Z,26.07
2022-08-17T18:25:02.795Z,26.00
2022-08-17T18:30:28.875Z,25.93
2022-08-17T18:35:35.175Z,25.37
2022-08-17T18:40:38.891Z,26.37
2022-08-17T18:45:48.304Z,25.17
2022-08-17T18:50:54.004Z,24.90
2022-08-17T18:56:30.697Z,24.40
2022-08-17T19:01:53.250Z,25.40
2022-08-17T19:07:25.791Z,26.03
2022-08-17T19:12:40.594Z,29.10
2022-08-17T19:17:48.792Z,26.80
2022-08-17T19:23:06.059Z,30.20
2022-08-17T19:28:21.454Z,32.33
2022-08-17T19:33:26.761Z,31.20
2022-08-17T19:38:41.655Z,30.90
2022-08-17T19:44:07.682Z,34.03
2022-08-17T19:49:17.110Z,30.27
2022-08-17T19:54:26.970Z,30.03
2022-08-17T19:59:52.146Z,30.90
2022-08-17T20:05:00.989Z,31.90
2022-08-17T20:10:08.874Z,30.77
2022-08-17T20:15:17.775Z,33.27
2022-08-17T20:20:29.831Z,33.17
2022-08-17T20:25:43.808Z,32.57
2022-08-17T20:30:46.539Z,34.90
2022-08-17T20:36:04.710Z,34.00
2022-08-17T20:41:13.518Z,32.97
2022-08-17T20:46:52.027Z,34.13
2022-08-17T20:52:02.742Z,36.00
2022-08-17T20:57:14.121Z,36.40
2022-08-17T21:02:21.226Z,36.93
2022-08-17T21:07:30.017Z,37.80
2022-08-17T21:12:47.785Z,37.73
2022-08-17T21:18:02.044Z,37.73
2022-08-17T21:23:25.227Z,44.07
2022-08-17T21:29:01.070Z,45.37
2022-08-17T21:34:30.638Z,51.40
2022-08-17T21:39:41.673Z,53.27
2022-08-17T21:44:53.326Z,53.03
2022-08-17T21:50:14.262Z,53.17
2022-08-17T21:55:28.396Z,58.37
2022-08-17T22:00:46.310Z,54.90
2022-08-17T22:05:51.177Z,56.57
2022-08-17T22:11:08.178Z,53.60
2022-08-17T22:16:29.301Z,52.30
2022-08-17T22:21:46.246Z,52.67
2022-08-17T22:27:03.306Z,55.00
2022-08-17T22:32:07.717Z,52.77
2022-08-17T22:37:27.456Z,55.63
2022-08-17T22:42:32.330Z,50.20
2022-08-17T22:47:49.568Z,53.23
2022-08-17T22:53:33.325Z,59.00
2022-08-17T22:59:10.580Z,56.57
2022-08-17T23:04:43.157Z,59.80
2022-08-17T23:09:55.308Z,55.30
2022-08-17T23:15:01.510Z,58.63
2022-08-17T23:20:08.426Z,53.80
2022-08-17T23:25:16.268Z,52.03
2022-08-17T23:30:27.246Z,57.03
2022-08-17T23:35:39.845Z,55.07
2022-08-17T23:40:43.780Z,57.20
2022-08-17T23:45:48.585Z,52.90
2022-08-17T23:50:54.432Z,51.77
2022-08-17T23:56:09.339Z,54.90
